Terminal Aerodrome Forecast
Issued by NWS Chicago, IL

Home | Current Version | Previous Version | Graphics & Text | Print | Product List | Glossary On
Versions: 1 2 3 4 5 6 7 8 9 10 11 12 13 14 15 16 17 18 19 20 21 22 23 24 25 26 27 28 29 30 31 32
000
FTUS43 KLOT 010900 AAA
TAFRFD
TAF AMD
KRFD 010901Z 0109/0206 VRB03KT P6SM SCT100
     FM011500 25005KT P6SM VCSH BKN050
     FM012100 21005KT P6SM BKN050
     FM020200 19003KT P6SM SCT050=

USA.gov is the U.S. government's official web portal to all federal, state and local government web resources and services.